sensor_id;sensor_type;location;lat;lon;timestamp;temperature;humidity
20370;DHT22;10344;47.592;9.600;2022-09-24T00:02:14;14.00;99.90
20370;DHT22;10344;47.592;9.600;2022-09-24T00:04:40;13.90;99.90
20370;DHT22;10344;47.592;9.600;2022-09-24T00:07:08;14.00;99.90
20370;DHT22;10344;47.592;9.600;2022-09-24T00:09:36;14.10;99.90
20370;DHT22;10344;47.592;9.600;2022-09-24T00:12:21;14.10;99.90
20370;DHT22;10344;47.592;9.600;2022-09-24T00:18:14;13.90;99.90
20370;DHT22;10344;47.592;9.600;2022-09-24T00:20:43;13.90;99.90
20370;DHT22;10344;47.592;9.600;2022-09-24T00:23:10;13.90;99.90
20370;DHT22;10344;47.592;9.600;2022-09-24T00:25:45;13.80;99.90
20370;DHT22;10344;47.592;9.600;2022-09-24T00:28:33;13.70;99.90
20370;DHT22;10344;47.592;9.600;2022-09-24T00:31:10;13.70;99.90
20370;DHT22;10344;47.592;9.600;2022-09-24T00:34:17;13.70;99.90
20370;DHT22;10344;47.592;9.600;2022-09-24T00:36:44;13.70;99.90
20370;DHT22;10344;47.592;9.600;2022-09-24T00:39:14;13.70;99.90
20370;DHT22;10344;47.592;9.600;2022-09-24T00:41:43;13.60;99.90
20370;DHT22;10344;47.592;9.600;2022-09-24T00:46:58;13.60;99.90
20370;DHT22;10344;47.592;9.600;2022-09-24T00:49:26;13.60;99.90
20370;DHT22;10344;47.592;9.600;2022-09-24T00:55:03;13.60;99.90
20370;DHT22;10344;47.592;9.600;2022-09-24T01:00:33;13.70;99.90
20370;DHT22;10344;47.592;9.600;2022-09-24T01:03:00;13.60;99.90
20370;DHT22;10344;47.592;9.600;2022-09-24T01:05:30;13.60;99.90
20370;DHT22;10344;47.592;9.600;2022-09-24T01:08:00;13.60;99.90
20370;DHT22;10344;47.592;9.600;2022-09-24T01:16:07;13.40;99.90
20370;DHT22;10344;47.592;9.600;2022-09-24T01:30:10;13.50;99.90
20370;DHT22;10344;47.592;9.600;2022-09-24T01:35:43;13.40;99.90
20370;DHT22;10344;47.592;9.600;2022-09-24T01:38:32;13.30;99.90
20370;DHT22;10344;47.592;9.600;2022-09-24T01:41:01;13.20;99.90
20370;DHT22;10344;47.592;9.600;2022-09-24T01:43:35;13.10;99.90
20370;DHT22;10344;47.592;9.600;2022-09-24T01:46:29;13.10;99.90
20370;DHT22;10344;47.592;9.600;2022-09-24T01:48:56;13.10;99.90
20370;DHT22;10344;47.592;9.600;2022-09-24T01:51:28;13.00;99.90
20370;DHT22;10344;47.592;9.600;2022-09-24T01:59:33;13.20;99.90
20370;DHT22;10344;47.592;9.600;2022-09-24T02:02:06;13.20;99.90
20370;DHT22;10344;47.592;9.600;2022-09-24T02:04:57;13.30;99.90
20370;DHT22;10344;47.592;9.600;2022-09-24T02:07:25;13.30;99.90
20370;DHT22;10344;47.592;9.600;2022-09-24T02:10:11;13.40;99.90
20370;DHT22;10344;47.592;9.600;2022-09-24T02:12:49;13.40;99.90
20370;DHT22;10344;47.592;9.600;2022-09-24T02:15:18;13.50;99.90
20370;DHT22;10344;47.592;9.600;2022-09-24T02:17:56;13.40;99.90
20370;DHT22;10344;47.592;9.600;2022-09-24T02:20:25;13.40;99.90
20370;DHT22;10344;47.592;9.600;2022-09-24T02:23:03;13.50;99.90
20370;DHT22;10344;47.592;9.600;2022-09-24T02:25:36;13.40;99.90
20370;DHT22;10344;47.592;9.600;2022-09-24T02:28:08;13.40;99.90
20370;DHT22;10344;47.592;9.600;2022-09-24T02:30:40;13.40;99.90
20370;DHT22;10344;47.592;9.600;2022-09-24T02:33:31;13.50;99.90
20370;DHT22;10344;47.592;9.600;2022-09-24T02:36:18;13.50;99.90
20370;DHT22;10344;47.592;9.600;2022-09-24T02:38:52;13.50;99.90
20370;DHT22;10344;47.592;9.600;2022-09-24T02:41:21;13.60;99.90
20370;DHT22;10344;47.592;9.600;2022-09-24T02:43:50;13.60;99.90
20370;DHT22;10344;47.592;9.600;2022-09-24T02:46:19;13.60;99.90
20370;DHT22;10344;47.592;9.600;2022-09-24T02:49:17;13.50;99.90
20370;DHT22;10344;47.592;9.600;2022-09-24T02:52:02;13.40;99.90
20370;DHT22;10344;47.592;9.600;2022-09-24T02:54:34;13.40;99.90
20370;DHT22;10344;47.592;9.600;2022-09-24T02:57:04;13.30;99.90
20370;DHT22;10344;47.592;9.600;2022-09-24T02:59:35;13.30;99.90
20370;DHT22;10344;47.592;9.600;2022-09-24T03:02:24;13.30;99.90
20370;DHT22;10344;47.592;9.600;2022-09-24T03:05:17;13.10;99.90
20370;DHT22;10344;47.592;9.600;2022-09-24T03:08:10;13.20;99.90
20370;DHT22;10344;47.592;9.600;2022-09-24T03:10:40;13.10;99.90
20370;DHT22;10344;47.592;9.600;2022-09-24T03:13:14;13.00;99.90
20370;DHT22;10344;47.592;9.600;2022-09-24T03:15:55;13.00;99.90
20370;DHT22;10344;47.592;9.600;2022-09-24T03:18:46;13.00;99.90
20370;DHT22;10344;47.592;9.600;2022-09-24T03:21:15;13.00;99.90
20370;DHT22;10344;47.592;9.600;2022-09-24T03:23:46;13.10;99.90
20370;DHT22;10344;47.592;9.600;2022-09-24T03:26:28;13.10;99.90
20370;DHT22;10344;47.592;9.600;2022-09-24T03:29:26;13.00;99.90
20370;DHT22;10344;47.592;9.600;2022-09-24T03:32:10;12.90;99.90
20370;DHT22;10344;47.592;9.600;2022-09-24T03:34:48;12.80;99.90
20370;DHT22;10344;47.592;9.600;2022-09-24T03:37:27;12.80;99.90
20370;DHT22;10344;47.592;9.600;2022-09-24T03:40:01;12.90;99.90
20370;DHT22;10344;47.592;9.600;2022-09-24T03:42:32;12.90;99.90
20370;DHT22;10344;47.592;9.600;2022-09-24T03:45:04;12.80;99.90
20370;DHT22;10344;47.592;9.600;2022-09-24T03:50:24;12.90;99.90
20370;DHT22;10344;47.592;9.600;2022-09-24T03:52:50;12.80;99.90
20370;DHT22;10344;47.592;9.600;2022-09-24T03:55:22;12.80;99.90
20370;DHT22;10344;47.592;9.600;2022-09-24T03:57:49;12.90;99.90
20370;DHT22;10344;47.592;9.600;2022-09-24T04:00:37;12.80;99.90
20370;DHT22;10344;47.592;9.600;2022-09-24T04:03:04;12.80;99.90
20370;DHT22;10344;47.592;9.600;2022-09-24T04:05:52;12.80;99.90
20370;DHT22;10344;47.592;9.600;2022-09-24T04:08:39;12.80;99.90
20370;DHT22;10344;47.592;9.600;2022-09-24T04:11:06;12.80;99.90
20370;DHT22;10344;47.592;9.600;2022-09-24T04:13:53;12.70;99.90
20370;DHT22;10344;47.592;9.600;2022-09-24T04:16:24;12.70;99.90
20370;DHT22;10344;47.592;9.600;2022-09-24T04:18:50;12.70;99.90
20370;DHT22;10344;47.592;9.600;2022-09-24T04:21:42;12.80;99.90
20370;DHT22;10344;47.592;9.600;2022-09-24T04:24:12;12.80;99.90
20370;DHT22;10344;47.592;9.600;2022-09-24T04:26:57;12.80;99.90
20370;DHT22;10344;47.592;9.600;2022-09-24T04:29:55;12.90;99.90
20370;DHT22;10344;47.592;9.600;2022-09-24T04:32:22;12.90;99.90
20370;DHT22;10344;47.592;9.600;2022-09-24T04:34:49;12.90;99.90
20370;DHT22;10344;47.592;9.600;2022-09-24T04:37:29;13.00;99.90
20370;DHT22;10344;47.592;9.600;2022-09-24T04:40:16;12.90;99.90
20370;DHT22;10344;47.592;9.600;2022-09-24T04:42:55;12.90;99.90
20370;DHT22;10344;47.592;9.600;2022-09-24T04:45:35;13.00;99.90
20370;DHT22;10344;47.592;9.600;2022-09-24T04:48:14;13.00;99.90
20370;DHT22;10344;47.592;9.600;2022-09-24T04:50:43;13.00;99.90
20370;DHT22;10344;47.592;9.600;2022-09-24T04:53:35;13.00;99.90
20370;DHT22;10344;47.592;9.600;2022-09-24T04:56:18;13.10;99.90
20370;DHT22;10344;47.592;9.600;2022-09-24T04:58:50;13.10;99.90
20370;DHT22;10344;47.592;9.600;2022-09-24T05:01:22;13.10;99.90
20370;DHT22;10344;47.592;9.600;2022-09-24T05:03:57;13.00;99.90
20370;DHT22;10344;47.592;9.600;2022-09-24T05:06:30;13.10;99.90
20370;DHT22;10344;47.592;9.600;2022-09-24T05:09:24;13.10;99.90
20370;DHT22;10344;47.592;9.600;2022-09-24T05:12:01;13.10;99.90
20370;DHT22;10344;47.592;9.600;2022-09-24T05:14:37;13.10;99.90
20370;DHT22;10344;47.592;9.600;2022-09-24T05:17:03;13.20;99.90
20370;DHT22;10344;47.592;9.600;2022-09-24T05:19:45;13.10;99.90
20370;DHT22;10344;47.592;9.600;2022-09-24T05:22:12;13.20;99.90
20370;DHT22;10344;47.592;9.600;2022-09-24T05:24:38;13.10;99.90
20370;DHT22;10344;47.592;9.600;2022-09-24T05:27:24;13.10;99.90
20370;DHT22;10344;47.592;9.600;2022-09-24T05:30:12;13.20;99.90
20370;DHT22;10344;47.592;9.600;2022-09-24T05:32:41;13.10;99.90
20370;DHT22;10344;47.592;9.600;2022-09-24T05:35:33;13.20;99.90
20370;DHT22;10344;47.592;9.600;2022-09-24T05:38:08;13.20;99.90
20370;DHT22;10344;47.592;9.600;2022-09-24T05:40:34;13.20;99.90
20370;DHT22;10344;47.592;9.600;2022-09-24T05:43:13;13.10;99.90
20370;DHT22;10344;47.592;9.600;2022-09-24T05:45:45;13.10;99.90
20370;DHT22;10344;47.592;9.600;2022-09-24T05:48:18;13.20;99.90
20370;DHT22;10344;47.592;9.600;2022-09-24T05:50:49;13.20;99.90
20370;DHT22;10344;47.592;9.600;2022-09-24T05:53:28;13.20;99.90
20370;DHT22;10344;47.592;9.600;2022-09-24T05:55:58;13.20;99.90
20370;DHT22;10344;47.592;9.600;2022-09-24T05:58:26;13.20;99.90
20370;DHT22;10344;47.592;9.600;2022-09-24T06:01:02;13.20;99.90
20370;DHT22;10344;47.592;9.600;2022-09-24T06:03:47;13.20;99.90
20370;DHT22;10344;47.592;9.600;2022-09-24T06:06:36;13.20;99.90
20370;DHT22;10344;47.592;9.600;2022-09-24T06:09:10;13.20;99.90
20370;DHT22;10344;47.592;9.600;2022-09-24T06:12:18;13.30;99.90
20370;DHT22;10344;47.592;9.600;2022-09-24T06:15:08;13.30;99.90
20370;DHT22;10344;47.592;9.600;2022-09-24T06:17:40;13.30;99.90
20370;DHT22;10344;47.592;9.600;2022-09-24T06:20:20;13.30;99.90
20370;DHT22;10344;47.592;9.600;2022-09-24T06:23:29;13.30;99.90
20370;DHT22;10344;47.592;9.600;2022-09-24T06:25:57;13.40;99.90
20370;DHT22;10344;47.592;9.600;2022-09-24T06:28:50;13.50;99.90
20370;DHT22;10344;47.592;9.600;2022-09-24T06:31:42;13.40;99.90
20370;DHT22;10344;47.592;9.600;2022-09-24T06:40:30;13.40;99.90
20370;DHT22;10344;47.592;9.600;2022-09-24T07:32:02;13.80;99.90
20370;DHT22;10344;47.592;9.600;2022-09-24T07:35:09;13.80;99.90
20370;DHT22;10344;47.592;9.600;2022-09-24T07:47:46;13.90;99.90
20370;DHT22;10344;47.592;9.600;2022-09-24T07:50:56;13.90;99.90
20370;DHT22;10344;47.592;9.600;2022-09-24T07:54:22;14.00;99.90
20370;DHT22;10344;47.592;9.600;2022-09-24T07:57:52;14.10;99.90
20370;DHT22;10344;47.592;9.600;2022-09-24T08:08:37;14.10;99.90
20370;DHT22;10344;47.592;9.600;2022-09-24T08:15:11;14.20;99.90
20370;DHT22;10344;47.592;9.600;2022-09-24T08:18:48;14.20;99.90
20370;DHT22;10344;47.592;9.600;2022-09-24T08:22:08;14.30;99.90
20370;DHT22;10344;47.592;9.600;2022-09-24T08:29:23;14.50;99.90
20370;DHT22;10344;47.592;9.600;2022-09-24T08:33:09;14.60;99.90
20370;DHT22;10344;47.592;9.600;2022-09-24T08:36:24;14.70;99.90
20370;DHT22;10344;47.592;9.600;2022-09-24T08:39:19;14.70;99.90
20370;DHT22;10344;47.592;9.600;2022-09-24T08:42:39;14.70;99.90
20370;DHT22;10344;47.592;9.600;2022-09-24T08:45:54;14.70;99.90
20370;DHT22;10344;47.592;9.600;2022-09-24T08:49:02;14.80;99.90
20370;DHT22;10344;47.592;9.600;2022-09-24T08:55:57;14.70;99.90
20370;DHT22;10344;47.592;9.600;2022-09-24T09:16:22;14.90;99.90
20370;DHT22;10344;47.592;9.600;2022-09-24T09:19:15;14.90;99.90
20370;DHT22;10344;47.592;9.600;2022-09-24T09:22:20;14.90;99.90
20370;DHT22;10344;47.592;9.600;2022-09-24T09:24:51;15.00;99.90
20370;DHT22;10344;47.592;9.600;2022-09-24T09:27:18;15.10;99.90
20370;DHT22;10344;47.592;9.600;2022-09-24T09:30:12;15.20;99.90
20370;DHT22;10344;47.592;9.600;2022-09-24T09:33:14;15.30;99.90
20370;DHT22;10344;47.592;9.600;2022-09-24T09:44:45;15.40;99.90
20370;DHT22;10344;47.592;9.600;2022-09-24T09:47:49;15.40;99.90
20370;DHT22;10344;47.592;9.600;2022-09-24T09:50:50;15.40;99.90
20370;DHT22;10344;47.592;9.600;2022-09-24T09:53:34;15.50;99.90
20370;DHT22;10344;47.592;9.600;2022-09-24T09:56:04;15.70;99.90
20370;DHT22;10344;47.592;9.600;2022-09-24T09:58:36;15.70;99.90
20370;DHT22;10344;47.592;9.600;2022-09-24T10:01:19;15.70;99.90
20370;DHT22;10344;47.592;9.600;2022-09-24T10:06:13;15.70;99.90
20370;DHT22;10344;47.592;9.600;2022-09-24T10:08:39;15.70;99.90
20370;DHT22;10344;47.592;9.600;2022-09-24T10:11:05;15.90;99.90
20370;DHT22;10344;47.592;9.600;2022-09-24T10:13:32;16.00;99.90
20370;DHT22;10344;47.592;9.600;2022-09-24T10:16:03;16.00;99.90
20370;DHT22;10344;47.592;9.600;2022-09-24T10:18:37;16.00;99.90
20370;DHT22;10344;47.592;9.600;2022-09-24T10:21:12;16.00;99.90
20370;DHT22;10344;47.592;9.600;2022-09-24T10:23:40;16.00;99.90
20370;DHT22;10344;47.592;9.600;2022-09-24T10:26:09;15.80;99.90
20370;DHT22;10344;47.592;9.600;2022-09-24T10:29:02;15.70;99.90
20370;DHT22;10344;47.592;9.600;2022-09-24T10:31:46;15.60;99.90
20370;DHT22;10344;47.592;9.600;2022-09-24T10:34:25;15.60;99.90
20370;DHT22;10344;47.592;9.600;2022-09-24T10:37:11;15.60;99.90
20370;DHT22;10344;47.592;9.600;2022-09-24T10:39:38;15.50;99.90
20370;DHT22;10344;47.592;9.600;2022-09-24T10:42:22;15.50;99.90
20370;DHT22;10344;47.592;9.600;2022-09-24T10:44:51;15.50;99.90
20370;DHT22;10344;47.592;9.600;2022-09-24T10:52:50;15.60;99.90
20370;DHT22;10344;47.592;9.600;2022-09-24T11:20:17;15.50;99.90
20370;DHT22;10344;47.592;9.600;2022-09-24T11:46:26;16.40;99.90
20370;DHT22;10344;47.592;9.600;2022-09-24T11:55:09;16.30;99.90
20370;DHT22;10344;47.592;9.600;2022-09-24T11:57:43;16.30;99.90
20370;DHT22;10344;47.592;9.600;2022-09-24T12:00:14;16.30;99.90
20370;DHT22;10344;47.592;9.600;2022-09-24T12:08:02;16.30;99.90
20370;DHT22;10344;47.592;9.600;2022-09-24T12:18:17;16.10;99.90
20370;DHT22;10344;47.592;9.600;2022-09-24T12:20:51;16.10;99.90
20370;DHT22;10344;47.592;9.600;2022-09-24T12:23:24;16.00;99.90
20370;DHT22;10344;47.592;9.600;2022-09-24T12:25:56;16.00;99.90
20370;DHT22;10344;47.592;9.600;2022-09-24T12:28:24;16.00;99.90
20370;DHT22;10344;47.592;9.600;2022-09-24T12:31:21;15.90;99.90
20370;DHT22;10344;47.592;9.600;2022-09-24T12:34:21;15.80;99.90
20370;DHT22;10344;47.592;9.600;2022-09-24T12:36:53;15.80;99.90
20370;DHT22;10344;47.592;9.600;2022-09-24T12:39:27;15.80;99.90
20370;DHT22;10344;47.592;9.600;2022-09-24T12:42:02;15.80;99.90
20370;DHT22;10344;47.592;9.600;2022-09-24T12:44:57;15.70;99.90
20370;DHT22;10344;47.592;9.600;2022-09-24T12:47:26;15.70;99.90
20370;DHT22;10344;47.592;9.600;2022-09-24T12:49:57;15.70;99.90
20370;DHT22;10344;47.592;9.600;2022-09-24T12:52:26;15.70;99.90
20370;DHT22;10344;47.592;9.600;2022-09-24T12:55:00;15.60;99.90
20370;DHT22;10344;47.592;9.600;2022-09-24T12:57:35;15.60;99.90
20370;DHT22;10344;47.592;9.600;2022-09-24T13:00:32;15.60;99.90
20370;DHT22;10344;47.592;9.600;2022-09-24T13:02:52;15.60;99.90
20370;DHT22;10344;47.592;9.600;2022-09-24T13:13:38;15.80;99.90
20370;DHT22;10344;47.592;9.600;2022-09-24T13:16:19;15.80;99.90
20370;DHT22;10344;47.592;9.600;2022-09-24T13:21:58;15.80;99.90
20370;DHT22;10344;47.592;9.600;2022-09-24T13:24:29;15.80;99.90
20370;DHT22;10344;47.592;9.600;2022-09-24T13:27:19;15.80;99.90
20370;DHT22;10344;47.592;9.600;2022-09-24T13:29:51;15.80;99.90
20370;DHT22;10344;47.592;9.600;2022-09-24T13:32:20;15.70;99.90
20370;DHT22;10344;47.592;9.600;2022-09-24T13:34:46;15.70;99.90
20370;DHT22;10344;47.592;9.600;2022-09-24T13:37:26;15.80;99.90
20370;DHT22;10344;47.592;9.600;2022-09-24T13:40:12;15.80;99.90
20370;DHT22;10344;47.592;9.600;2022-09-24T13:42:54;15.90;99.90
20370;DHT22;10344;47.592;9.600;2022-09-24T13:45:23;15.90;99.90
20370;DHT22;10344;47.592;9.600;2022-09-24T13:48:01;15.90;99.90
20370;DHT22;10344;47.592;9.600;2022-09-24T13:50:28;15.90;99.90
20370;DHT22;10344;47.592;9.600;2022-09-24T13:52:57;15.90;99.90
20370;DHT22;10344;47.592;9.600;2022-09-24T13:55:32;15.90;99.90
20370;DHT22;10344;47.592;9.600;2022-09-24T13:58:04;15.90;99.90
20370;DHT22;10344;47.592;9.600;2022-09-24T14:00:36;15.90;99.90
20370;DHT22;10344;47.592;9.600;2022-09-24T14:03:32;15.80;99.90
20370;DHT22;10344;47.592;9.600;2022-09-24T14:05:59;15.80;99.90
20370;DHT22;10344;47.592;9.600;2022-09-24T14:08:26;15.80;99.90
20370;DHT22;10344;47.592;9.600;2022-09-24T14:11:19;15.80;99.90
20370;DHT22;10344;47.592;9.600;2022-09-24T14:13:49;15.80;99.90
20370;DHT22;10344;47.592;9.600;2022-09-24T14:16:26;15.70;99.90
20370;DHT22;10344;47.592;9.600;2022-09-24T14:19:11;15.70;99.90
20370;DHT22;10344;47.592;9.600;2022-09-24T14:21:44;15.70;99.90
20370;DHT22;10344;47.592;9.600;2022-09-24T14:24:59;15.70;99.90
20370;DHT22;10344;47.592;9.600;2022-09-24T14:27:15;15.60;99.90
20370;DHT22;10344;47.592;9.600;2022-09-24T14:30:05;15.60;99.90
20370;DHT22;10344;47.592;9.600;2022-09-24T14:32:37;15.60;99.90
20370;DHT22;10344;47.592;9.600;2022-09-24T14:35:05;15.70;99.90
20370;DHT22;10344;47.592;9.600;2022-09-24T14:37:34;15.70;99.90
20370;DHT22;10344;47.592;9.600;2022-09-24T14:40:14;15.90;99.90
20370;DHT22;10344;47.592;9.600;2022-09-24T14:42:47;15.90;99.90
20370;DHT22;10344;47.592;9.600;2022-09-24T14:45:19;15.80;99.90
20370;DHT22;10344;47.592;9.600;2022-09-24T14:47:57;15.80;99.90
20370;DHT22;10344;47.592;9.600;2022-09-24T14:50:38;15.70;99.90
20370;DHT22;10344;47.592;9.600;2022-09-24T14:55:57;15.60;99.90
20370;DHT22;10344;47.592;9.600;2022-09-24T15:01:16;15.50;99.90
20370;DHT22;10344;47.592;9.600;2022-09-24T15:04:22;15.50;99.90
20370;DHT22;10344;47.592;9.600;2022-09-24T15:06:50;15.40;99.90
20370;DHT22;10344;47.592;9.600;2022-09-24T15:09:25;15.40;99.90
20370;DHT22;10344;47.592;9.600;2022-09-24T15:12:25;15.30;99.90
20370;DHT22;10344;47.592;9.600;2022-09-24T15:17:47;15.30;99.90
20370;DHT22;10344;47.592;9.600;2022-09-24T15:20:14;15.30;99.90
20370;DHT22;10344;47.592;9.600;2022-09-24T15:22:40;15.30;99.90
20370;DHT22;10344;47.592;9.600;2022-09-24T15:25:07;15.30;99.90
20370;DHT22;10344;47.592;9.600;2022-09-24T15:27:39;15.30;99.90
20370;DHT22;10344;47.592;9.600;2022-09-24T15:30:10;15.30;99.90
20370;DHT22;10344;47.592;9.600;2022-09-24T15:32:39;15.30;99.90
20370;DHT22;10344;47.592;9.600;2022-09-24T15:35:15;15.30;99.90
20370;DHT22;10344;47.592;9.600;2022-09-24T15:37:52;15.30;99.90
20370;DHT22;10344;47.592;9.600;2022-09-24T15:40:23;15.30;99.90
20370;DHT22;10344;47.592;9.600;2022-09-24T15:43:07;15.30;99.90
20370;DHT22;10344;47.592;9.600;2022-09-24T15:45:42;15.30;99.90
20370;DHT22;10344;47.592;9.600;2022-09-24T15:48:10;15.20;99.90
20370;DHT22;10344;47.592;9.600;2022-09-24T15:50:38;15.20;99.90
20370;DHT22;10344;47.592;9.600;2022-09-24T15:53:06;15.20;99.90
20370;DHT22;10344;47.592;9.600;2022-09-24T15:55:40;15.20;99.90
20370;DHT22;10344;47.592;9.600;2022-09-24T15:58:16;15.20;99.90
20370;DHT22;10344;47.592;9.600;2022-09-24T16:00:52;15.20;99.90
20370;DHT22;10344;47.592;9.600;2022-09-24T16:03:26;15.10;99.90
20370;DHT22;10344;47.592;9.600;2022-09-24T16:06:01;15.10;99.90
20370;DHT22;10344;47.592;9.600;2022-09-24T16:08:28;15.10;99.90
20370;DHT22;10344;47.592;9.600;2022-09-24T16:11:00;15.00;99.90
20370;DHT22;10344;47.592;9.600;2022-09-24T16:13:42;15.00;99.90
20370;DHT22;10344;47.592;9.600;2022-09-24T16:16:36;14.90;99.90
20370;DHT22;10344;47.592;9.600;2022-09-24T16:19:20;14.90;99.90
20370;DHT22;10344;47.592;9.600;2022-09-24T16:21:54;14.90;99.90
20370;DHT22;10344;47.592;9.600;2022-09-24T16:24:31;14.80;99.90
20370;DHT22;10344;47.592;9.600;2022-09-24T16:27:28;14.80;99.90
20370;DHT22;10344;47.592;9.600;2022-09-24T16:29:55;14.80;99.90
20370;DHT22;10344;47.592;9.600;2022-09-24T16:32:30;14.80;99.90
20370;DHT22;10344;47.592;9.600;2022-09-24T16:35:04;14.80;99.90
20370;DHT22;10344;47.592;9.600;2022-09-24T16:37:45;14.80;99.90
20370;DHT22;10344;47.592;9.600;2022-09-24T16:40:17;14.80;99.90
20370;DHT22;10344;47.592;9.600;2022-09-24T16:42:49;14.80;99.90
20370;DHT22;10344;47.592;9.600;2022-09-24T16:45:21;14.70;99.90
20370;DHT22;10344;47.592;9.600;2022-09-24T16:48:00;14.80;99.90
20370;DHT22;10344;47.592;9.600;2022-09-24T16:50:42;14.70;99.90
20370;DHT22;10344;47.592;9.600;2022-09-24T16:53:13;14.70;99.90
20370;DHT22;10344;47.592;9.600;2022-09-24T16:55:40;14.60;99.90
20370;DHT22;10344;47.592;9.600;2022-09-24T16:58:10;14.60;99.90
20370;DHT22;10344;47.592;9.600;2022-09-24T17:00:52;14.50;99.90
20370;DHT22;10344;47.592;9.600;2022-09-24T17:03:33;14.50;99.90
20370;DHT22;10344;47.592;9.600;2022-09-24T17:06:02;14.50;99.90
20370;DHT22;10344;47.592;9.600;2022-09-24T17:09:01;14.40;99.90
20370;DHT22;10344;47.592;9.600;2022-09-24T17:11:47;14.40;99.90
20370;DHT22;10344;47.592;9.600;2022-09-24T17:14:38;14.40;99.90
20370;DHT22;10344;47.592;9.600;2022-09-24T17:17:13;14.40;99.90
20370;DHT22;10344;47.592;9.600;2022-09-24T17:19:45;14.40;99.90
20370;DHT22;10344;47.592;9.600;2022-09-24T17:22:20;14.30;99.90
20370;DHT22;10344;47.592;9.600;2022-09-24T17:24:52;14.20;99.90
20370;DHT22;10344;47.592;9.600;2022-09-24T17:27:28;14.20;99.90
20370;DHT22;10344;47.592;9.600;2022-09-24T17:29:55;14.20;99.90
20370;DHT22;10344;47.592;9.600;2022-09-24T17:32:32;14.20;99.90
20370;DHT22;10344;47.592;9.600;2022-09-24T17:35:06;14.20;99.90
20370;DHT22;10344;47.592;9.600;2022-09-24T17:37:34;14.10;99.90
20370;DHT22;10344;47.592;9.600;2022-09-24T17:40:06;14.10;99.90
20370;DHT22;10344;47.592;9.600;2022-09-24T17:42:53;14.10;99.90
20370;DHT22;10344;47.592;9.600;2022-09-24T17:45:40;14.00;99.90
20370;DHT22;10344;47.592;9.600;2022-09-24T17:48:39;14.00;99.90
20370;DHT22;10344;47.592;9.600;2022-09-24T17:51:21;14.00;99.90
20370;DHT22;10344;47.592;9.600;2022-09-24T17:54:11;13.90;99.90
20370;DHT22;10344;47.592;9.600;2022-09-24T17:57:04;13.80;99.90
20370;DHT22;10344;47.592;9.600;2022-09-24T17:59:34;13.80;99.90
20370;DHT22;10344;47.592;9.600;2022-09-24T18:02:14;13.80;99.90
20370;DHT22;10344;47.592;9.600;2022-09-24T18:05:01;13.80;99.90
20370;DHT22;10344;47.592;9.600;2022-09-24T18:07:29;13.80;99.90
20370;DHT22;10344;47.592;9.600;2022-09-24T18:10:02;13.70;99.90
20370;DHT22;10344;47.592;9.600;2022-09-24T18:12:29;13.60;99.90
20370;DHT22;10344;47.592;9.600;2022-09-24T18:15:12;13.60;99.90
20370;DHT22;10344;47.592;9.600;2022-09-24T18:17:42;13.50;99.90
20370;DHT22;10344;47.592;9.600;2022-09-24T18:20:09;13.40;99.90
20370;DHT22;10344;47.592;9.600;2022-09-24T18:22:42;13.30;99.90
20370;DHT22;10344;47.592;9.600;2022-09-24T18:25:13;13.30;99.90
20370;DHT22;10344;47.592;9.600;2022-09-24T18:27:45;13.20;99.90
20370;DHT22;10344;47.592;9.600;2022-09-24T18:30:34;13.10;99.90
20370;DHT22;10344;47.592;9.600;2022-09-24T18:33:09;13.10;99.90
20370;DHT22;10344;47.592;9.600;2022-09-24T18:35:41;13.00;99.90
20370;DHT22;10344;47.592;9.600;2022-09-24T18:38:20;13.00;99.90
20370;DHT22;10344;47.592;9.600;2022-09-24T18:40:59;12.90;99.90
20370;DHT22;10344;47.592;9.600;2022-09-24T18:43:35;12.90;99.90
20370;DHT22;10344;47.592;9.600;2022-09-24T18:46:26;12.80;99.90
20370;DHT22;10344;47.592;9.600;2022-09-24T18:49:05;12.70;99.90
20370;DHT22;10344;47.592;9.600;2022-09-24T18:51:35;12.70;99.90
20370;DHT22;10344;47.592;9.600;2022-09-24T18:54:11;12.70;99.90
20370;DHT22;10344;47.592;9.600;2022-09-24T18:56:48;12.60;99.90
20370;DHT22;10344;47.592;9.600;2022-09-24T18:59:26;12.60;99.90
20370;DHT22;10344;47.592;9.600;2022-09-24T19:01:55;12.60;99.90
20370;DHT22;10344;47.592;9.600;2022-09-24T19:04:25;12.60;99.90
20370;DHT22;10344;47.592;9.600;2022-09-24T19:06:58;12.60;99.90
20370;DHT22;10344;47.592;9.600;2022-09-24T19:09:26;12.60;99.90
20370;DHT22;10344;47.592;9.600;2022-09-24T19:11:52;12.60;99.90
20370;DHT22;10344;47.592;9.600;2022-09-24T19:14:21;12.60;99.90
20370;DHT22;10344;47.592;9.600;2022-09-24T19:17:07;12.70;99.90
20370;DHT22;10344;47.592;9.600;2022-09-24T19:19:43;12.70;99.90
20370;DHT22;10344;47.592;9.600;2022-09-24T19:22:14;12.70;99.90
20370;DHT22;10344;47.592;9.600;2022-09-24T19:24:41;12.70;99.90
20370;DHT22;10344;47.592;9.600;2022-09-24T19:27:11;12.70;99.90
20370;DHT22;10344;47.592;9.600;2022-09-24T19:29:41;12.70;99.90
20370;DHT22;10344;47.592;9.600;2022-09-24T19:32:18;12.70;99.90
20370;DHT22;10344;47.592;9.600;2022-09-24T19:35:09;12.70;99.90
20370;DHT22;10344;47.592;9.600;2022-09-24T19:37:54;12.80;99.90
20370;DHT22;10344;47.592;9.600;2022-09-24T19:40:44;12.80;99.90
20370;DHT22;10344;47.592;9.600;2022-09-24T19:43:21;12.80;99.90
20370;DHT22;10344;47.592;9.600;2022-09-24T19:45:59;12.80;99.90
20370;DHT22;10344;47.592;9.600;2022-09-24T19:48:56;12.90;99.90
20370;DHT22;10344;47.592;9.600;2022-09-24T19:51:50;12.80;99.90
20370;DHT22;10344;47.592;9.600;2022-09-24T19:54:17;12.90;99.90
20370;DHT22;10344;47.592;9.600;2022-09-24T19:56:47;12.90;99.90
20370;DHT22;10344;47.592;9.600;2022-09-24T19:59:47;12.90;99.90
20370;DHT22;10344;47.592;9.600;2022-09-24T20:02:18;12.80;99.90
20370;DHT22;10344;47.592;9.600;2022-09-24T20:04:54;12.80;99.90
20370;DHT22;10344;47.592;9.600;2022-09-24T20:07:27;12.80;99.90
20370;DHT22;10344;47.592;9.600;2022-09-24T20:10:34;12.70;99.90
20370;DHT22;10344;47.592;9.600;2022-09-24T20:13:08;12.80;99.90
20370;DHT22;10344;47.592;9.600;2022-09-24T20:15:39;12.80;99.90
20370;DHT22;10344;47.592;9.600;2022-09-24T20:18:12;12.80;99.90
20370;DHT22;10344;47.592;9.600;2022-09-24T20:20:55;12.80;99.90
20370;DHT22;10344;47.592;9.600;2022-09-24T20:23:25;12.80;99.90
20370;DHT22;10344;47.592;9.600;2022-09-24T20:26:21;12.80;99.90
20370;DHT22;10344;47.592;9.600;2022-09-24T20:29:27;12.70;99.90
20370;DHT22;10344;47.592;9.600;2022-09-24T20:32:05;12.70;99.90
20370;DHT22;10344;47.592;9.600;2022-09-24T20:34:51;12.60;99.90
20370;DHT22;10344;47.592;9.600;2022-09-24T20:37:28;12.60;99.90
20370;DHT22;10344;47.592;9.600;2022-09-24T20:40:23;12.50;99.90
20370;DHT22;10344;47.592;9.600;2022-09-24T20:42:56;12.50;99.90
20370;DHT22;10344;47.592;9.600;2022-09-24T20:45:38;12.50;99.90
20370;DHT22;10344;47.592;9.600;2022-09-24T20:48:18;12.60;99.90
20370;DHT22;10344;47.592;9.600;2022-09-24T20:51:12;12.60;99.90